Time;durP1;ratioP1;P1;durP2;ratioP2;P2;SDS_P1;SDS_P2;PMS_P1;PMS_P2;Temp;Humidity;BMP_temperature;BMP_pressure;BME280_temperature;BME280_humidity;BME280_pressure;Samples;Min_cycle;Max_cycle;Signal;HPM_P1;HPM_P2
2024/02/17 00:00:48;;;;;;;13.68;8.02;;;;;;;3.13;100.00;102407.81;2087742;28;20192;-69
2024/02/17 00:01:49;;;;;;;15.50;8.15;;;;;;;3.31;100.00;102442.06;2087252;28;20208;-70
2024/02/17 00:02:49;;;;;;;13.83;6.87;;;;;;;3.17;100.00;102420.47;2087343;28;20189;-70
2024/02/17 00:03:50;;;;;;;11.77;7.47;;;;;;;3.61;100.00;102493.66;2082774;28;20196;-70
2024/02/17 00:04:51;;;;;;;14.60;8.70;;;;;;;2.76;100.00;102365.81;2094611;28;20576;-70
2024/02/17 00:05:51;;;;;;;15.80;8.30;;;;;;;3.57;100.00;102498.22;2095245;28;20735;-70
2024/02/17 00:06:52;;;;;;;13.47;7.83;;;;;;;2.89;100.00;102400.31;2087612;28;20181;-70
2024/02/17 00:07:52;;;;;;;14.17;7.93;;;;;;;3.55;100.00;102494.22;2087540;28;20192;-70
2024/02/17 00:08:53;;;;;;;14.77;8.73;;;;;;;3.56;100.00;102496.63;2087612;28;20559;-70
2024/02/17 00:09:53;;;;;;;10.57;6.10;;;;;;;3.54;100.00;102493.41;2087426;28;20659;-70
2024/02/17 00:10:54;;;;;;;13.40;7.60;;;;;;;3.54;100.00;102498.88;2087008;28;20597;-70
2024/02/17 00:11:55;;;;;;;13.07;7.80;;;;;;;2.97;100.00;102407.63;2087707;28;20231;-70
2024/02/17 00:12:56;;;;;;;10.90;5.43;;;;;;;3.13;100.00;102444.19;2087334;28;20201;-69
2024/02/17 00:13:56;;;;;;;14.63;7.70;;;;;;;3.54;100.00;102498.88;2086907;28;20268;-70
2024/02/17 00:14:57;;;;;;;14.47;7.60;;;;;;;3.56;100.00;102504.03;2085966;28;20587;-69
2024/02/17 00:15:57;;;;;;;13.57;6.37;;;;;;;3.48;100.00;102491.22;2087536;28;20272;-69
2024/02/17 00:16:58;;;;;;;11.83;6.43;;;;;;;2.44;100.00;102333.78;2087387;28;20187;-70
2024/02/17 00:18:01;;;;;;;13.90;5.83;;;;;;;3.49;100.00;102507.31;2087914;28;20580;-70
2024/02/17 00:19:01;;;;;;;19.95;6.93;;;;;;;3.50;100.00;102500.69;2087607;28;20194;-70
2024/02/17 00:20:02;;;;;;;13.43;7.23;;;;;;;3.50;100.00;102505.38;2087546;28;20242;-69
2024/02/17 00:21:03;;;;;;;14.40;8.50;;;;;;;3.08;100.00;102443.63;2086997;28;20649;-69
2024/02/17 00:22:03;;;;;;;8.97;5.40;;;;;;;3.38;100.00;102495.19;2087560;28;20190;-69
2024/02/17 00:23:05;;;;;;;15.80;7.90;;;;;;;3.41;100.00;102510.97;2087315;28;20197;-70
2024/02/17 00:24:06;;;;;;;24.17;9.40;;;;;;;3.40;100.00;102509.38;2094662;28;20180;-70
2024/02/17 00:25:07;;;;;;;18.90;7.97;;;;;;;3.42;100.00;102519.97;2095035;28;20665;-69
2024/02/17 00:26:08;;;;;;;16.50;8.77;;;;;;;2.91;100.00;102439.13;2087977;28;20189;-70
2024/02/17 00:27:09;;;;;;;15.33;9.23;;;;;;;3.11;100.00;102459.38;2087503;28;20199;-70
2024/02/17 00:28:10;;;;;;;18.95;6.53;;;;;;;2.88;100.00;102412.38;2086970;28;20189;-70
2024/02/17 00:29:11;;;;;;;8.83;5.70;;;;;;;3.53;100.00;102518.41;2087637;28;20202;-70
2024/02/17 00:30:12;;;;;;;19.03;8.17;;;;;;;3.51;100.00;102527.00;2087308;28;20193;-70
2024/02/17 00:31:12;;;;;;;19.63;10.20;;;;;;;3.50;100.00;102524.59;2087269;28;20190;-70
2024/02/17 00:32:13;;;;;;;13.97;8.10;;;;;;;3.44;100.00;102532.19;2086659;28;20183;-70
2024/02/17 00:33:13;;;;;;;13.43;6.70;;;;;;;2.96;100.00;102443.56;2087705;28;20240;-70
2024/02/17 00:34:18;;;;;;;12.70;7.50;;;;;;;3.53;100.00;102515.66;2086557;28;20564;-70
2024/02/17 00:35:18;;;;;;;15.57;6.30;;;;;;;3.63;100.00;102528.94;2087828;28;20193;-69
2024/02/17 00:36:19;;;;;;;13.93;6.50;;;;;;;3.69;100.00;102527.59;2087107;28;20190;-70
2024/02/17 00:37:19;;;;;;;14.53;6.87;;;;;;;3.62;100.00;102524.59;2087354;28;20174;-70
2024/02/17 00:38:20;;;;;;;14.57;7.33;;;;;;;3.59;100.00;102514.31;2086675;28;20184;-70
2024/02/17 00:39:21;;;;;;;16.80;6.70;;;;;;;3.04;100.00;102415.31;2088323;28;20277;-70
2024/02/17 00:40:21;;;;;;;11.90;6.60;;;;;;;3.72;100.00;102496.75;2087814;28;20658;-70
2024/02/17 00:41:22;;;;;;;10.20;6.63;;;;;;;3.92;100.00;102526.03;2086855;28;20278;-70
2024/02/17 00:42:22;;;;;;;13.93;6.73;;;;;;;3.94;100.00;102529.22;2087317;28;20657;-69
2024/02/17 00:43:23;;;;;;;13.50;6.33;;;;;;;3.11;100.00;102418.28;2087547;28;20186;-70
2024/02/17 00:44:24;;;;;;;14.50;6.67;;;;;;;4.01;100.00;102534.94;2086767;28;20676;-70
2024/02/17 00:45:24;;;;;;;13.47;6.97;;;;;;;4.07;100.00;102534.38;2087510;28;20248;-70
2024/02/17 00:46:25;;;;;;;14.30;7.80;;;;;;;4.16;100.00;102539.75;2087559;28;20182;-70
2024/02/17 00:47:26;;;;;;;10.00;5.77;;;;;;;4.15;100.00;102536.19;2087555;28;20191;-70
2024/02/17 00:48:26;;;;;;;12.40;6.87;;;;;;;4.19;100.00;102530.81;2087505;28;20226;-69
2024/02/17 00:49:27;;;;;;;14.47;7.77;;;;;;;4.25;100.00;102541.22;2087792;28;20249;-69
2024/02/17 00:50:27;;;;;;;12.67;6.90;;;;;;;4.27;100.00;102532.66;2086873;28;20198;-69
2024/02/17 00:51:28;;;;;;;17.97;7.33;;;;;;;4.20;100.00;102533.22;2086148;28;20208;-70
2024/02/17 00:52:28;;;;;;;10.67;6.07;;;;;;;3.86;100.00;102478.03;2087356;28;20193;-70
2024/02/17 00:53:29;;;;;;;12.93;6.37;;;;;;;4.19;100.00;102530.81;2087547;28;20690;-70
2024/02/17 00:54:29;;;;;;;9.03;5.77;;;;;;;4.23;100.00;102529.00;2086849;28;20756;-70
2024/02/17 00:55:30;;;;;;;10.27;6.10;;;;;;;4.09;100.00;102517.56;2086782;28;20182;-69
2024/02/17 00:56:31;;;;;;;11.77;6.60;;;;;;;4.08;100.00;102524.19;2087295;28;20201;-69
2024/02/17 00:57:31;;;;;;;11.70;6.10;;;;;;;4.09;100.00;102534.84;2087781;28;20190;-70
2024/02/17 00:58:31;;;;;;;15.33;6.13;;;;;;;4.06;100.00;102540.22;2086678;28;20221;-70
2024/02/17 00:59:33;;;;;;;12.13;5.87;;;;;;;3.74;100.00;102489.00;2087406;28;20652;-69
2024/02/17 01:00:33;;;;;;;14.75;6.50;;;;;;;3.99;100.00;102535.28;2085492;28;20204;-70
2024/02/17 01:01:34;;;;;;;12.60;7.63;;;;;;;3.72;100.00;102497.56;2087623;28;20209;-70
2024/02/17 01:02:35;;;;;;;14.97;7.83;;;;;;;2.86;100.00;102362.66;2087212;28;20263;-69
2024/02/17 01:03:35;;;;;;;9.77;5.50;;;;;;;3.87;100.00;102535.28;2095041;28;20209;-70
2024/02/17 01:04:36;;;;;;;12.33;7.70;;;;;;;3.39;100.00;102472.13;2095045;28;20645;-70
2024/02/17 01:05:38;;;;;;;12.40;6.00;;;;;;;3.81;100.00;102542.13;2088635;28;20192;-69
2024/02/17 01:06:39;;;;;;;9.68;5.95;;;;;;;3.34;100.00;102463.34;2096349;28;20203;-69
2024/02/17 01:07:39;;;;;;;9.70;6.23;;;;;;;2.81;100.00;102389.44;2096525;28;20684;-70
2024/02/17 01:08:40;;;;;;;10.30;6.53;;;;;;;3.60;100.00;102530.41;2088435;28;20242;-70
2024/02/17 01:09:41;;;;;;;10.90;5.53;;;;;;;3.49;100.00;102522.97;2089018;28;20196;-70
2024/02/17 01:10:41;;;;;;;9.87;5.67;;;;;;;3.57;100.00;102533.84;2087962;28;21186;-70
2024/02/17 01:11:42;;;;;;;13.00;6.27;;;;;;;3.22;100.00;102483.28;2089057;28;21504;-70
2024/02/17 01:12:43;;;;;;;16.43;8.93;;;;;;;2.98;100.00;102479.66;2089051;28;20193;-70
2024/02/17 01:13:43;;;;;;;13.53;8.10;;;;;;;3.41;100.00;102543.03;2089100;28;20214;-70
2024/02/17 01:14:44;;;;;;;13.23;7.83;;;;;;;2.84;100.00;102458.03;2096111;28;20242;-70
2024/02/17 01:15:45;;;;;;;14.03;7.90;;;;;;;3.23;100.00;102528.72;2096879;28;20286;-70
2024/02/17 01:16:45;;;;;;;14.50;8.07;;;;;;;3.14;100.00;102533.47;2089127;28;20194;-70
2024/02/17 01:17:46;;;;;;;13.57;8.70;;;;;;;3.21;100.00;102535.66;2085803;28;20570;-70
2024/02/17 01:18:46;;;;;;;14.97;9.80;;;;;;;3.04;100.00;102517.44;2087936;28;20199;-70
2024/02/17 01:19:47;;;;;;;17.50;11.07;;;;;;;3.12;100.00;102541.22;2088911;28;20633;-70
2024/02/17 01:20:47;;;;;;;18.17;9.43;;;;;;;3.01;100.00;102525.53;2088108;28;20190;-70
2024/02/17 01:21:48;;;;;;;16.93;10.00;;;;;;;2.10;100.00;102394.25;2089513;28;20286;-70
2024/02/17 01:22:48;;;;;;;15.00;8.27;;;;;;;2.95;100.00;102530.44;2088327;28;20235;-70
2024/02/17 01:23:49;;;;;;;16.30;8.27;;;;;;;2.98;100.00;102545.38;2089128;28;20183;-70
2024/02/17 01:24:50;;;;;;;17.37;7.90;;;;;;;2.65;100.00;102500.69;2088357;28;20926;-70
2024/02/17 01:25:50;;;;;;;13.70;8.07;;;;;;;2.90;100.00;102546.25;2089115;28;20189;-70
2024/02/17 01:26:51;;;;;;;17.23;7.73;;;;;;;2.89;100.00;102545.47;2088656;28;20212;-70
2024/02/17 01:27:52;;;;;;;11.33;6.93;;;;;;;2.73;100.00;102527.22;2088776;28;20181;-70
2024/02/17 01:28:52;;;;;;;16.70;7.53;;;;;;;2.84;100.00;102542.94;2087560;28;20204;-71
2024/02/17 01:29:53;;;;;;;13.90;7.80;;;;;;;2.32;100.00;102469.72;2089482;28;20272;-70
2024/02/17 01:30:53;;;;;;;12.30;6.53;;;;;;;2.27;100.00;102467.97;2088417;28;20192;-70
2024/02/17 01:31:57;;;;;;;13.10;7.27;;;;;;;2.38;100.00;102488.34;2088933;28;20228;-70
2024/02/17 01:32:57;;;;;;;13.60;8.10;;;;;;;2.72;100.00;102542.06;2088738;28;20188;-69
2024/02/17 01:33:58;;;;;;;11.50;7.07;;;;;;;2.54;100.00;102533.16;2088717;28;20204;-69
2024/02/17 01:34:58;;;;;;;15.63;7.77;;;;;;;2.66;100.00;102546.91;2088448;28;20566;-70
2024/02/17 01:35:59;;;;;;;12.97;7.67;;;;;;;2.60;100.00;102539.22;2088916;28;20669;-70
2024/02/17 01:36:59;;;;;;;12.73;7.40;;;;;;;1.66;100.00;102397.59;2088335;28;20752;-70
2024/02/17 01:38:03;;;;;;;12.80;7.50;;;;;;;1.80;100.00;102411.00;2088582;28;20192;-70
2024/02/17 01:39:04;;;;;;;14.57;7.68;;;;;;;2.45;100.00;102526.13;2096965;28;20186;-70
2024/02/17 01:40:06;;;;;;;12.77;8.10;;;;;;;2.61;100.00;102543.56;2096425;28;20248;-69
2024/02/17 01:41:06;;;;;;;14.50;7.28;;;;;;;2.35;100.00;102510.06;2095628;28;20205;-70
2024/02/17 01:42:07;;;;;;;14.97;7.77;;;;;;;1.74;100.00;102415.84;2096399;28;20198;-70
2024/02/17 01:43:07;;;;;;;14.97;8.23;;;;;;;2.62;100.00;102554.19;2088864;28;20256;-70
2024/02/17 01:44:08;;;;;;;12.90;7.97;;;;;;;2.21;100.00;102485.72;2087745;28;20208;-70
2024/02/17 01:45:10;;;;;;;13.20;8.43;;;;;;;2.56;100.00;102550.03;2088913;28;20199;-70
2024/02/17 01:46:11;;;;;;;15.57;8.57;;;;;;;2.57;100.00;102548.13;2088344;28;20181;-69
2024/02/17 01:47:11;;;;;;;13.07;7.87;;;;;;;2.57;100.00;102551.63;2088148;28;20298;-70
2024/02/17 01:48:14;;;;;;;14.77;8.27;;;;;;;2.00;100.00;102463.00;2088632;28;20188;-69
2024/02/17 01:49:14;;;;;;;13.73;7.85;;;;;;;2.53;100.00;102542.50;2088502;28;20194;-70
2024/02/17 01:50:15;;;;;;;14.07;7.97;;;;;;;2.56;100.00;102544.56;2088758;28;20196;-70
2024/02/17 01:51:16;;;;;;;12.10;7.60;;;;;;;2.53;100.00;102537.03;2087321;28;20198;-70
2024/02/17 01:52:16;;;;;;;9.03;5.00;;;;;;;2.58;100.00;102545.03;2088650;28;20307;-70
2024/02/17 01:53:17;;;;;;;16.63;6.80;;;;;;;2.38;100.00;102512.16;2088765;28;20220;-70
2024/02/17 01:54:18;;;;;;;10.87;5.03;;;;;;;2.43;100.00;102525.66;2088058;28;20188;-70
2024/02/17 01:55:19;;;;;;;9.80;5.83;;;;;;;2.53;100.00;102555.38;2088681;28;20684;-70
2024/02/17 01:56:21;;;;;;;9.55;5.43;;;;;;;2.53;100.00;102538.97;2088215;28;20697;-70
2024/02/17 01:57:22;;;;;;;12.30;7.63;;;;;;;2.36;100.00;102511.72;2088751;28;20703;-70
2024/02/17 01:58:23;;;;;;;12.10;6.28;;;;;;;2.55;100.00;102539.41;2088385;28;20748;-70
2024/02/17 01:59:24;;;;;;;13.73;7.83;;;;;;;2.57;100.00;102543.41;2088714;28;20619;-70
2024/02/17 02:00:26;;;;;;;14.15;7.50;;;;;;;2.24;100.00;102492.44;2088141;28;20278;-70
2024/02/17 02:01:27;;;;;;;12.68;7.88;;;;;;;2.51;100.00;102544.75;2088469;28;20534;-70
2024/02/17 02:02:28;;;;;;;8.82;5.75;;;;;;;2.52;100.00;102546.34;2088368;28;20555;-70
2024/02/17 02:03:29;;;;;;;10.70;5.10;;;;;;;2.33;100.00;102532.31;2087869;28;20250;-69
2024/02/17 02:04:30;;;;;;;12.50;5.10;;;;;;;2.34;100.00;102528.44;2087865;28;20195;-70
2024/02/17 02:05:31;;;;;;;13.17;7.70;;;;;;;2.25;100.00;102516.75;2089398;28;20184;-69
2024/02/17 02:06:32;;;;;;;12.70;7.55;;;;;;;1.93;100.00;102462.72;2089011;28;20184;-70
2024/02/17 02:07:32;;;;;;;11.83;6.10;;;;;;;1.48;100.00;102398.78;2088686;28;20657;-69
2024/02/17 02:08:33;;;;;;;11.10;5.80;;;;;;;2.40;100.00;102543.53;2087972;28;20197;-70
2024/02/17 02:09:33;;;;;;;14.13;7.43;;;;;;;2.32;100.00;102543.59;2088695;28;20283;-69
2024/02/17 02:10:34;;;;;;;14.67;7.50;;;;;;;2.16;100.00;102517.94;2086904;28;20257;-70
2024/02/17 02:11:35;;;;;;;8.63;4.97;;;;;;;2.34;100.00;102550.34;2088573;28;20588;-70
2024/02/17 02:12:35;;;;;;;11.87;7.20;;;;;;;2.18;100.00;102516.47;2088431;28;20227;-70
2024/02/17 02:13:36;;;;;;;11.03;7.37;;;;;;;2.36;100.00;102550.81;2088748;28;20218;-70
2024/02/17 02:14:37;;;;;;;12.05;7.78;;;;;;;2.21;100.00;102526.75;2088418;28;20667;-70
2024/02/17 02:15:42;;;;;;;15.90;7.53;;;;;;;1.69;100.00;102459.00;2088958;28;20580;-70
2024/02/17 02:16:43;;;;;;;14.75;8.25;;;;;;;2.29;100.00;102549.72;2087690;28;20188;-70
2024/02/17 02:17:45;;;;;;;9.73;6.83;;;;;;;2.30;100.00;102545.84;2088542;28;20207;-70
2024/02/17 02:18:46;;;;;;;10.52;5.75;;;;;;;1.58;100.00;102433.94;2088178;28;20192;-70
2024/02/17 02:19:47;;;;;;;10.83;5.53;;;;;;;2.30;100.00;102549.38;2088502;28;20203;-70
2024/02/17 02:20:49;;;;;;;14.73;7.65;;;;;;;2.23;100.00;102535.44;2087771;28;21212;-70
2024/02/17 02:21:49;;;;;;;12.35;7.68;;;;;;;2.28;100.00;102546.19;2088398;28;20192;-70
2024/02/17 02:22:50;;;;;;;14.90;8.10;;;;;;;1.85;100.00;102481.91;2088282;28;20188;-70
2024/02/17 02:23:50;;;;;;;12.60;7.23;;;;;;;1.44;100.00;102416.97;2089035;28;20267;-69
2024/02/17 02:24:56;;;;;;;15.97;8.03;;;;;;;2.28;100.00;102540.72;2087825;28;20215;-70
2024/02/17 02:25:56;;;;;;;12.02;7.47;;;;;;;2.26;100.00;102562.13;2087705;28;20199;-70
2024/02/17 02:26:57;;;;;;;11.93;7.37;;;;;;;2.21;100.00;102534.94;2087910;28;20203;-70
2024/02/17 02:27:58;;;;;;;6.23;4.23;;;;;;;0.73;100.00;102305.91;2088240;28;20216;-69
2024/02/17 02:28:58;;;;;;;14.83;7.30;;;;;;;1.54;100.00;102445.88;2087990;28;20586;-70
2024/02/17 02:29:59;;;;;;;14.47;7.40;;;;;;;1.70;100.00;102460.59;2088075;28;20870;-70
2024/02/17 02:31:00;;;;;;;16.07;7.80;;;;;;;1.33;100.00;102402.06;2087490;28;20420;-70
2024/02/17 02:32:00;;;;;;;14.70;7.80;;;;;;;2.04;100.00;102517.81;2095824;28;20275;-70
2024/02/17 02:33:01;;;;;;;11.40;7.67;;;;;;;2.17;100.00;102547.66;2096457;28;20190;-70
2024/02/17 02:34:01;;;;;;;14.10;7.53;;;;;;;1.81;100.00;102500.09;2088260;28;20189;-70
2024/02/17 02:35:02;;;;;;;10.07;5.47;;;;;;;2.15;100.00;102549.94;2088334;28;20653;-70
2024/02/17 02:36:03;;;;;;;14.33;7.13;;;;;;;2.12;100.00;102545.16;2095983;28;20187;-70
2024/02/17 02:37:04;;;;;;;12.03;7.60;;;;;;;1.65;100.00;102460.78;2094972;28;20230;-70
2024/02/17 02:38:04;;;;;;;10.93;6.63;;;;;;;2.19;100.00;102553.63;2087940;28;20620;-69
2024/02/17 02:39:05;;;;;;;12.33;7.33;;;;;;;1.51;100.00;102447.31;2088358;28;20245;-69
2024/02/17 02:40:06;;;;;;;13.07;7.50;;;;;;;1.63;100.00;102477.50;2088007;28;20181;-70
2024/02/17 02:41:06;;;;;;;11.35;7.18;;;;;;;2.12;100.00;102555.28;2088361;28;20689;-69
2024/02/17 02:42:07;;;;;;;12.50;7.17;;;;;;;2.07;100.00;102564.47;2088203;28;20630;-70
2024/02/17 02:43:08;;;;;;;14.10;6.47;;;;;;;2.05;100.00;102557.72;2088255;28;20199;-70
2024/02/17 02:44:08;;;;;;;17.27;7.60;;;;;;;1.38;100.00;102453.78;2087855;28;20196;-70
2024/02/17 02:45:09;;;;;;;12.53;7.70;;;;;;;2.06;100.00;102560.13;2088490;28;20206;-70
2024/02/17 02:46:11;;;;;;;15.87;7.93;;;;;;;1.63;100.00;102493.06;2088112;28;20201;-70
2024/02/17 02:47:11;;;;;;;12.23;7.72;;;;;;;2.08;100.00;102574.28;2088494;28;20192;-70
2024/02/17 02:48:12;;;;;;;11.10;6.50;;;;;;;1.59;100.00;102475.75;2087693;28;20247;-70
2024/02/17 02:49:13;;;;;;;12.20;7.50;;;;;;;2.10;100.00;102565.75;2087731;28;20670;-69
2024/02/17 02:50:14;;;;;;;12.57;7.50;;;;;;;2.09;100.00;102562.22;2087837;28;20184;-70
2024/02/17 02:51:16;;;;;;;13.30;7.43;;;;;;;1.66;100.00;102528.78;2087127;28;20188;-70
2024/02/17 02:52:17;;;;;;;11.88;7.13;;;;;;;1.87;100.00;102542.50;2087342;28;20287;-70
2024/02/17 02:53:17;;;;;;;10.83;6.63;;;;;;;2.02;100.00;102564.66;2087800;28;20216;-69
2024/02/17 02:54:19;;;;;;;11.93;7.07;;;;;;;2.02;100.00;102561.94;2087845;28;20211;-70
2024/02/17 02:55:19;;;;;;;11.05;6.75;;;;;;;2.03;100.00;102571.72;2088543;28;20226;-70
2024/02/17 02:56:20;;;;;;;15.47;6.83;;;;;;;1.50;100.00;102480.44;2087711;28;20220;-70
2024/02/17 02:57:20;;;;;;;11.33;4.57;;;;;;;2.01;100.00;102567.72;2088389;28;20572;-70
2024/02/17 02:58:21;;;;;;;9.57;5.27;;;;;;;1.97;100.00;102566.75;2088418;28;20189;-70
2024/02/17 02:59:21;;;;;;;10.70;5.97;;;;;;;1.04;100.00;102428.50;2088239;28;20196;-70
2024/02/17 03:00:22;;;;;;;18.07;7.23;;;;;;;1.62;100.00;102508.69;2088322;28;20208;-70
2024/02/17 03:01:22;;;;;;;15.20;7.40;;;;;;;1.37;100.00;102465.84;2087938;28;20208;-70
2024/02/17 03:02:23;;;;;;;13.00;7.37;;;;;;;1.72;100.00;102524.72;2086653;28;20242;-70
2024/02/17 03:03:23;;;;;;;12.23;7.67;;;;;;;2.00;100.00;102575.09;2088402;28;20544;-70
2024/02/17 03:04:24;;;;;;;12.10;6.50;;;;;;;1.97;100.00;102572.22;2087636;28;20199;-70
2024/02/17 03:05:24;;;;;;;8.70;5.27;;;;;;;1.93;100.00;102566.63;2088720;28;20191;-70
2024/02/17 03:06:25;;;;;;;10.87;7.27;;;;;;;1.03;100.00;102433.16;2086655;28;20257;-69
2024/02/17 03:07:27;;;;;;;11.63;6.50;;;;;;;1.36;100.00;102483.38;2087682;28;20666;-70
2024/02/17 03:08:28;;;;;;;17.13;7.22;;;;;;;1.80;100.00;102556.69;2087584;28;20636;-70
2024/02/17 03:09:28;;;;;;;14.47;6.77;;;;;;;1.42;100.00;102501.19;2088380;28;20219;-70
2024/02/17 03:10:29;;;;;;;16.77;6.80;;;;;;;1.93;100.00;102576.75;2087465;28;20211;-70
2024/02/17 03:11:29;;;;;;;11.80;5.63;;;;;;;1.92;100.00;102575.97;2088174;28;20197;-70
2024/02/17 03:12:30;;;;;;;11.37;5.47;;;;;;;1.87;100.00;102578.88;2088171;28;20649;-70
2024/02/17 03:13:30;;;;;;;11.07;6.80;;;;;;;1.70;100.00;102539.84;2088008;28;20196;-70
2024/02/17 03:14:31;;;;;;;11.17;6.97;;;;;;;1.43;100.00;102501.97;2086866;28;20675;-70
2024/02/17 03:15:31;;;;;;;12.50;6.97;;;;;;;1.90;100.00;102574.69;2088702;28;20210;-70
2024/02/17 03:16:32;;;;;;;14.63;7.83;;;;;;;1.52;100.00;102513.69;2087634;28;20202;-70
2024/02/17 03:17:33;;;;;;;10.77;6.40;;;;;;;1.70;100.00;102539.84;2087940;28;20342;-70
2024/02/17 03:18:33;;;;;;;12.33;7.73;;;;;;;1.85;100.00;102552.97;2087596;28;20188;-70
2024/02/17 03:19:34;;;;;;;11.43;7.40;;;;;;;1.09;100.00;102439.25;2086816;28;20212;-70
2024/02/17 03:20:35;;;;;;;8.10;4.67;;;;;;;1.75;100.00;102547.88;2087083;28;20188;-70
2024/02/17 03:21:35;;;;;;;14.30;6.77;;;;;;;1.91;100.00;102577.06;2087937;28;20191;-70
2024/02/17 03:22:36;;;;;;;11.80;7.37;;;;;;;1.72;100.00;102557.53;2087741;28;20184;-70
2024/02/17 03:23:36;;;;;;;12.77;7.67;;;;;;;1.81;100.00;102557.50;2088863;28;20184;-70
2024/02/17 03:24:37;;;;;;;11.77;7.37;;;;;;;1.77;100.00;102554.63;2087316;28;20184;-70
2024/02/17 03:25:37;;;;;;;12.67;7.17;;;;;;;1.82;100.00;102556.34;2088199;28;20185;-70
2024/02/17 03:26:38;;;;;;;6.23;4.33;;;;;;;0.88;100.00;102411.03;2088072;28;20196;-70
2024/02/17 03:27:39;;;;;;;10.90;5.00;;;;;;;1.89;100.00;102567.59;2088104;28;20219;-69
2024/02/17 03:28:39;;;;;;;12.35;6.70;;;;;;;1.94;100.00;102567.41;2086599;28;20188;-70
2024/02/17 03:29:40;;;;;;;11.03;5.93;;;;;;;1.66;100.00;102517.03;2087703;28;20212;-69
2024/02/17 03:30:41;;;;;;;16.30;7.70;;;;;;;1.82;100.00;102542.69;2087423;28;20195;-70
2024/02/17 03:31:44;;;;;;;12.23;7.57;;;;;;;1.99;100.00;102580.91;2087768;28;20188;-70
2024/02/17 03:32:44;;;;;;;12.70;6.95;;;;;;;0.63;100.00;102363.53;2088572;28;20196;-70
2024/02/17 03:33:45;;;;;;;9.37;5.27;;;;;;;1.95;100.00;102577.25;2088052;28;20220;-69
2024/02/17 03:34:45;;;;;;;7.97;4.43;;;;;;;1.92;100.00;102581.44;2087032;28;20471;-69
2024/02/17 03:35:46;;;;;;;11.43;6.07;;;;;;;1.89;100.00;102562.13;2087926;28;20204;-69
2024/02/17 03:36:46;;;;;;;10.07;7.00;;;;;;;1.92;100.00;102586.91;2087690;28;20717;-69
2024/02/17 03:37:47;;;;;;;13.77;9.17;;;;;;;1.88;100.00;102591.41;2087709;28;20593;-69
2024/02/17 03:38:47;;;;;;;11.87;6.33;;;;;;;1.89;100.00;102576.59;2087413;28;20180;-69
2024/02/17 03:39:48;;;;;;;12.03;7.10;;;;;;;1.95;100.00;102577.25;2087830;28;20254;-70
2024/02/17 03:40:49;;;;;;;12.80;6.80;;;;;;;1.80;100.00;102564.88;2087783;28;20196;-69
2024/02/17 03:41:51;;;;;;;15.30;9.43;;;;;;;1.69;100.00;102533.56;2087818;28;20192;-69
2024/02/17 03:42:52;;;;;;;17.92;11.40;;;;;;;1.86;100.00;102557.31;2087723;28;20184;-69
2024/02/17 03:43:53;;;;;;;14.13;7.93;;;;;;;2.03;100.00;102577.19;2087764;28;20266;-69
2024/02/17 03:44:53;;;;;;;12.47;6.27;;;;;;;2.05;100.00;102582.34;2087372;28;20188;-70
2024/02/17 03:45:53;;;;;;;15.23;6.87;;;;;;;2.10;100.00;102582.16;2088025;28;20450;-70
2024/02/17 03:46:54;;;;;;;14.63;8.73;;;;;;;2.00;100.00;102571.59;2087736;28;20189;-69
2024/02/17 03:47:55;;;;;;;16.10;9.73;;;;;;;1.97;100.00;102570.31;2087464;28;20184;-70
2024/02/17 03:48:55;;;;;;;17.23;9.57;;;;;;;2.06;100.00;102590.19;2087235;28;20672;-69
2024/02/17 03:49:56;;;;;;;14.20;7.17;;;;;;;1.65;100.00;102537.28;2087985;28;20524;-70
2024/02/17 03:50:56;;;;;;;15.70;7.87;;;;;;;1.70;100.00;102520.72;2094025;28;20195;-69
2024/02/17 03:51:57;;;;;;;14.43;6.90;;;;;;;1.45;100.00;102480.59;2095339;28;20218;-70
2024/02/17 03:52:57;;;;;;;13.37;7.60;;;;;;;2.10;100.00;102582.94;2087676;28;20265;-69
2024/02/17 03:53:58;;;;;;;19.67;9.33;;;;;;;1.50;100.00;102483.94;2087600;28;20288;-69
2024/02/17 03:54:58;;;;;;;9.77;5.63;;;;;;;2.00;100.00;102572.38;2087259;28;20470;-69
2024/02/17 03:55:59;;;;;;;17.80;9.70;;;;;;;1.94;100.00;102570.94;2087749;28;20271;-69
2024/02/17 03:56:59;;;;;;;17.67;9.50;;;;;;;2.01;100.00;102576.72;2087484;28;20190;-69
2024/02/17 03:58:00;;;;;;;10.63;6.70;;;;;;;1.63;100.00;102513.00;2088018;28;20684;-69
2024/02/17 03:59:00;;;;;;;13.13;6.77;;;;;;;2.20;100.00;102595.44;2087735;28;20680;-69
2024/02/17 04:00:03;;;;;;;14.33;6.70;;;;;;;0.80;100.00;102363.53;2087614;28;20197;-69
2024/02/17 04:01:03;;;;;;;11.55;6.07;;;;;;;2.20;100.00;102579.03;2086772;28;20250;-69
2024/02/17 04:02:04;;;;;;;9.37;5.73;;;;;;;2.16;100.00;102561.69;2087799;28;20257;-70
2024/02/17 04:03:04;;;;;;;10.67;5.97;;;;;;;2.29;100.00;102591.56;2087611;28;20258;-70
2024/02/17 04:04:05;;;;;;;9.50;6.13;;;;;;;2.37;100.00;102589.91;2086514;28;20219;-69
2024/02/17 04:05:08;;;;;;;11.65;6.57;;;;;;;1.63;100.00;102477.50;2086704;28;20373;-70
2024/02/17 04:06:08;;;;;;;11.75;6.30;;;;;;;2.41;100.00;102602.59;2086052;28;20193;-70
2024/02/17 04:07:09;;;;;;;11.40;6.57;;;;;;;2.46;100.00;102593.41;2087304;28;20189;-69
2024/02/17 04:08:09;;;;;;;16.93;6.70;;;;;;;2.49;100.00;102590.00;2087218;28;20212;-69
2024/02/17 04:09:10;;;;;;;12.00;5.53;;;;;;;2.54;100.00;102598.84;2087573;28;20224;-70
2024/02/17 04:10:10;;;;;;;12.87;7.00;;;;;;;2.00;100.00;102495.03;2087630;28;20200;-70
2024/02/17 04:11:11;;;;;;;9.27;5.80;;;;;;;2.58;100.00;102579.81;2086982;28;20200;-70
2024/02/17 04:12:11;;;;;;;11.90;6.63;;;;;;;2.63;100.00;102585.09;2086837;28;20192;-69
2024/02/17 04:13:12;;;;;;;12.40;6.67;;;;;;;2.23;100.00;102520.94;2086567;28;20188;-69
2024/02/17 04:14:12;;;;;;;15.33;6.93;;;;;;;2.22;100.00;102511.94;2086916;28;20211;-70
2024/02/17 04:15:13;;;;;;;12.23;6.17;;;;;;;2.83;100.00;102598.03;2088488;28;20199;-69
2024/02/17 04:16:13;;;;;;;10.23;6.53;;;;;;;2.84;100.00;102594.13;2087664;28;20593;-69
2024/02/17 04:17:14;;;;;;;12.50;6.23;;;;;;;2.88;100.00;102587.66;2087542;28;20202;-69
2024/02/17 04:18:14;;;;;;;12.47;6.73;;;;;;;1.99;100.00;102438.69;2086872;28;20239;-69
2024/02/17 04:19:15;;;;;;;10.63;5.80;;;;;;;2.80;100.00;102577.59;2086703;28;20206;-69
2024/02/17 04:20:15;;;;;;;9.87;5.80;;;;;;;2.79;100.00;102562.28;2087174;28;20279;-70
2024/02/17 04:21:16;;;;;;;11.37;6.10;;;;;;;2.66;100.00;102532.41;2086085;28;20250;-69
2024/02/17 04:22:17;;;;;;;11.63;6.33;;;;;;;3.12;100.00;102590.53;2087254;28;20626;-69
2024/02/17 04:23:17;;;;;;;11.63;6.50;;;;;;;2.25;100.00;102447.53;2087508;28;20214;-69
2024/02/17 04:24:18;;;;;;;12.70;6.53;;;;;;;3.18;100.00;102596.63;2086623;28;20641;-69
2024/02/17 04:25:18;;;;;;;10.07;6.00;;;;;;;3.21;100.00;102598.69;2086737;28;20287;-70
2024/02/17 04:26:19;;;;;;;10.53;5.70;;;;;;;2.42;100.00;102474.81;2095057;28;20565;-69
2024/02/17 04:27:19;;;;;;;11.83;6.23;;;;;;;3.17;100.00;102576.63;2095137;28;20204;-70
2024/02/17 04:28:21;;;;;;;13.50;6.90;;;;;;;3.30;100.00;102592.00;2085912;28;20220;-69
2024/02/17 04:29:21;;;;;;;10.77;5.53;;;;;;;3.34;100.00;102592.91;2087594;28;20233;-70
2024/02/17 04:30:22;;;;;;;10.03;7.10;;;;;;;3.34;100.00;102586.66;2087200;28;20184;-70
2024/02/17 04:31:23;;;;;;;12.47;7.03;;;;;;;3.42;100.00;102596.72;2087804;28;20596;-69
2024/02/17 04:32:24;;;;;;;13.13;7.00;;;;;;;3.42;100.00;102603.00;2087482;28;20188;-69
2024/02/17 04:33:24;;;;;;;12.25;5.82;;;;;;;2.71;100.00;102481.00;2087661;28;20241;-70
2024/02/17 04:34:25;;;;;;;12.03;6.90;;;;;;;3.50;100.00;102602.13;2087101;28;20328;-69
2024/02/17 04:35:26;;;;;;;11.63;5.47;;;;;;;2.83;100.00;102486.53;2087683;28;20188;-69
2024/02/17 04:36:26;;;;;;;11.37;6.53;;;;;;;3.49;100.00;102613.44;2087064;28;20204;-69
2024/02/17 04:37:27;;;;;;;16.90;5.97;;;;;;;3.54;100.00;102603.06;2087481;28;20410;-69
2024/02/17 04:38:27;;;;;;;12.67;6.17;;;;;;;3.07;100.00;102521.44;2087062;28;20195;-70
2024/02/17 04:39:28;;;;;;;13.47;6.13;;;;;;;3.42;100.00;102589.31;2087351;28;20280;-69